Seminole, Pennsylvania
Current Conditions -  °F | °C
As of 12:15 PM on Thursday 30 Oct 2014 (Local Time) from KIDI Reporting Station
Overcast Overcast  
Wind Chill: 44°   Ceiling: 2100
Heat Index: 46°   Visibility: 10mi
Dew Point: 39°   Wind: 5mph
Humidity: 76%   Direction: 200°SSW
Pressure: 30.12"   Gusts: NA
Location:  40.95°N, 79.34°W
Report Text: KIDI 301615Z AUTO 20004KT 10SM BKN021 BKN032 OVC045 08/04 A3012 RMK A01
Loading
Personal Weather Stations






























Interactive Weather Map
Tropical Storm Tracking
New forecast layout! Learn more

10-Day Weather Forecast

Advertisements
Track Severe Weather on mobile